Oriana — ZCDU9 — position and weather

sailwx.info

Track history (hours):
 
Tides and Currents Weather Stations Pressure Air Temp Water Temp Dewpoint Dewpoint Depression Visibility Wind Speed Wind Dir Waves Ship Positions

Oriana (Bermuda)

Last reported at 2015-May-24 01:33 UTC. Time now 2015-May-24 02:54 UTC.
Position N 35°57' W 005°60'.

Length 261 m; beam 32.2 m; draft 8.2 m.

Type: Ship. MMSI: 310529000.

Date/timePositionNaut miles runAvg speedWind from/ knotsBaromVisibWave heightAir tempDewpointWater temp
2015-May-24 01:33N 35°57' W 005°60'1918.1
2015-May-24 00:30N 35°57' W 005°36'1516.1
2015-May-23 23:33N 36°02' W 005°18'14717.4
2015-May-23 15:09N 36°25' W 002°19'1118.7
2015-May-23 14:32N 36°27' W 002°05'71217.8
2015-May-21 22:33N 36°49' E 012°42'1716.9
2015-May-21 21:32N 36°41' E 013°02'1616.5
2015-May-21 20:33N 36°34' E 013°20'1615.7
2015-May-21 19:33N 36°26' E 013°36'1615.7
2015-May-21 18:33N 36°18' E 013°53'1716.7
2015-May-21 17:33N 36°10' E 014°12'1818.4
2015-May-21 16:33N 35°59' E 014°29'6 0.9
2015-May-21 10:29N 35°53' E 014°31'0 0.0
2015-May-21 09:29N 35°53' E 014°31'0 0.0
2015-May-21 08:32N 35°53' E 014°31'0 0.0
2015-May-21 06:32N 35°53' E 014°31'0 0.0
2015-May-21 05:32N 35°53' E 014°31'2 1.9
2015-May-21 04:33N 35°55' E 014°32'1211.7
2015-May-21 03:33N 35°58' E 014°46'1111.5
2015-May-21 02:34N 35°58' E 015°00'1212.0
2015-May-21 01:34N 35°56' E 015°15'1211.8
2015-May-21 00:33N 35°56' E 015°30'1211.6
2015-May-20 23:33N 35°55' E 015°44'1212.2
2015-May-20 22:33N 35°55' E 015°59'1212.2
2015-May-20 21:33N 35°54' E 016°14'1212.2
2015-May-20 20:33N 35°54' E 016°29'1212.4
2015-May-20 19:33N 35°53' E 016°45'1312.8
2015-May-20 18:33N 35°53' E 017°00'1312.9
2015-May-20 17:33N 35°53' E 017°16'1312.8
2015-May-20 16:33N 35°52' E 017°32'1312.9
2015-May-20 15:33N 35°51' E 017°48'1312.7
2015-May-20 14:33N 35°51' E 018°04'33214.9
2015-May-19 16:19N 35°32' E 024°52'1216.4
2015-May-19 15:33N 35°26' E 025°06'6 2.7
2015-May-19 13:25N 35°21' E 025°09'0 0.0
2015-May-19 10:31N 35°21' E 025°09'0 0.0
2015-May-19 08:19N 35°21' E 025°09'0 0.0
2015-May-19 06:07N 35°21' E 025°09'0 0.0
2015-May-19 05:13N 35°21' E 025°09'0 0.0
2015-May-19 04:32N 35°21' E 025°09'4 3.9
2015-May-19 03:32N 35°25' E 025°09'1010.3
2015-May-19 02:32N 35°33' E 025°02'1111.5
2015-May-19 01:33N 35°43' E 024°55'1716.6
2015-May-19 00:32N 35°57' E 024°45'1616.0
2015-May-18 23:33N 36°11' E 024°34'1515.5
2015-May-18 22:34N 36°23' E 024°23'1615.7
2015-May-18 21:32N 36°38' E 024°14'2315.7
2015-May-18 20:06N 36°59' E 024°03'815.3
2015-May-18 19:33N 37°06' E 023°58'1615.8
2015-May-18 18:33N 37°20' E 023°49'1615.5
2015-May-18 17:33N 37°35' E 023°45'1716.9
2015-May-18 16:34N 37°50' E 023°37'6 5.8
2015-May-18 15:32N 37°56' E 023°38'0 0.0
2015-May-18 14:29N 37°56' E 023°38'0 0.0
2015-May-18 13:23N 37°56' E 023°38'0 0.0
2015-May-18 12:23N 37°56' E 023°38'0 0.0
2015-May-18 11:29N 37°56' E 023°38'0 0.0
2015-May-18 10:32N 37°56' E 023°38'0 0.0
2015-May-18 08:26N 37°56' E 023°38'0 0.0
2015-May-18 07:29N 37°56' E 023°38'0 0.0
2015-May-18 06:33N 37°56' E 023°38'0 0.0
2015-May-18 05:29N 37°56' E 023°38'0 0.0
2015-May-18 04:32N 37°56' E 023°38'1 0.7
2015-May-18 03:33N 37°56' E 023°37'3 3.1
2015-May-18 02:33N 37°53' E 023°38'1414.4
2015-May-18 01:34N 37°40' E 023°46'1514.9
2015-May-18 00:33N 37°34' E 024°03'11916.3
2015-May-17 17:16N 37°53' E 026°31'29 1.5
2015-May-16 22:28N 37°54' E 025°55'  
Track history (hours):
 
Tides and Currents Weather Stations Pressure Air Temp Water Temp Dewpoint Dewpoint Depression Visibility Wind Speed Wind Dir Waves Ship Positions

Oriana (Bermuda)

Last reported at 2015-May-24 01:33 UTC. Time now 2015-May-24 02:54 UTC.
Position N 35°57' W 005°60'.

Length 261 m; beam 32.2 m; draft 8.2 m.

Type: Ship. MMSI: 310529000.

Date/timePositionNaut miles runAvg speedWind from/ knotsBaromVisibWave heightAir tempDewpointWater temp
2015-May-24 01:33N 35°57' W 005°60'1918.1
2015-May-24 00:30N 35°57' W 005°36'1516.1
2015-May-23 23:33N 36°02' W 005°18'14717.4
2015-May-23 15:09N 36°25' W 002°19'1118.7
2015-May-23 14:32N 36°27' W 002°05'71217.8
2015-May-21 22:33N 36°49' E 012°42'1716.9
2015-May-21 21:32N 36°41' E 013°02'1616.5
2015-May-21 20:33N 36°34' E 013°20'1615.7
2015-May-21 19:33N 36°26' E 013°36'1615.7
2015-May-21 18:33N 36°18' E 013°53'1716.7
2015-May-21 17:33N 36°10' E 014°12'1818.4
2015-May-21 16:33N 35°59' E 014°29'6 0.9
2015-May-21 10:29N 35°53' E 014°31'0 0.0
2015-May-21 09:29N 35°53' E 014°31'0 0.0
2015-May-21 08:32N 35°53' E 014°31'0 0.0
2015-May-21 06:32N 35°53' E 014°31'0 0.0
2015-May-21 05:32N 35°53' E 014°31'2 1.9
2015-May-21 04:33N 35°55' E 014°32'1211.7
2015-May-21 03:33N 35°58' E 014°46'1111.5
2015-May-21 02:34N 35°58' E 015°00'1212.0
2015-May-21 01:34N 35°56' E 015°15'1211.8
2015-May-21 00:33N 35°56' E 015°30'1211.6
2015-May-20 23:33N 35°55' E 015°44'1212.2
2015-May-20 22:33N 35°55' E 015°59'1212.2
2015-May-20 21:33N 35°54' E 016°14'1212.2
2015-May-20 20:33N 35°54' E 016°29'1212.4
2015-May-20 19:33N 35°53' E 016°45'1312.8
2015-May-20 18:33N 35°53' E 017°00'1312.9
2015-May-20 17:33N 35°53' E 017°16'1312.8
2015-May-20 16:33N 35°52' E 017°32'1312.9
2015-May-20 15:33N 35°51' E 017°48'1312.7
2015-May-20 14:33N 35°51' E 018°04'33214.9
2015-May-19 16:19N 35°32' E 024°52'1216.4
2015-May-19 15:33N 35°26' E 025°06'6 2.7
2015-May-19 13:25N 35°21' E 025°09'0 0.0
2015-May-19 10:31N 35°21' E 025°09'0 0.0
2015-May-19 08:19N 35°21' E 025°09'0 0.0
2015-May-19 06:07N 35°21' E 025°09'0 0.0
2015-May-19 05:13N 35°21' E 025°09'0 0.0
2015-May-19 04:32N 35°21' E 025°09'4 3.9
2015-May-19 03:32N 35°25' E 025°09'1010.3
2015-May-19 02:32N 35°33' E 025°02'1111.5
2015-May-19 01:33N 35°43' E 024°55'1716.6
2015-May-19 00:32N 35°57' E 024°45'1616.0
2015-May-18 23:33N 36°11' E 024°34'1515.5
2015-May-18 22:34N 36°23' E 024°23'1615.7
2015-May-18 21:32N 36°38' E 024°14'2315.7
2015-May-18 20:06N 36°59' E 024°03'815.3
2015-May-18 19:33N 37°06' E 023°58'1615.8
2015-May-18 18:33N 37°20' E 023°49'1615.5
2015-May-18 17:33N 37°35' E 023°45'1716.9
2015-May-18 16:34N 37°50' E 023°37'6 5.8
2015-May-18 15:32N 37°56' E 023°38'0 0.0
2015-May-18 14:29N 37°56' E 023°38'0 0.0
2015-May-18 13:23N 37°56' E 023°38'0 0.0
2015-May-18 12:23N 37°56' E 023°38'0 0.0
2015-May-18 11:29N 37°56' E 023°38'0 0.0
2015-May-18 10:32N 37°56' E 023°38'0 0.0
2015-May-18 08:26N 37°56' E 023°38'0 0.0
2015-May-18 07:29N 37°56' E 023°38'0 0.0
2015-May-18 06:33N 37°56' E 023°38'0 0.0
2015-May-18 05:29N 37°56' E 023°38'0 0.0
2015-May-18 04:32N 37°56' E 023°38'1 0.7
2015-May-18 03:33N 37°56' E 023°37'3 3.1
2015-May-18 02:33N 37°53' E 023°38'1414.4
2015-May-18 01:34N 37°40' E 023°46'1514.9
2015-May-18 00:33N 37°34' E 024°03'11916.3
2015-May-17 17:16N 37°53' E 026°31'29 1.5
2015-May-16 22:28N 37°54' E 025°55'  

Dump ship's entire track history